Data for 04/09/2008

Time Sea-Level Adjusted Pressure Absolute Pressure Temperature Relative Humidity Dew Point   
(mb) (inHg) (mb) (inHg) (C) (F) (%) (C) (F)
00:05 1011 29.85 840 24.81 -0.9 30.4 78 -4.3 24.2
00:10 1011 29.85 840 24.81 -0.8 30.5 78 -4.3 24.3
00:15 1011 29.85 840 24.81 -1.2 29.9 79 -4.4 24.1
00:20 1011 29.85 840 24.81 -1.5 29.4 80 -4.5 23.8
00:25 1011 29.85 840 24.81 -1.5 29.3 80 -4.6 23.8
00:30 1011 29.85 840 24.81 -1.5 29.2 80 -4.6 23.7
00:35 1011 29.85 840 24.81 -1.4 29.4 79 -4.7 23.6
00:40 1011 29.85 840 24.81 -1.3 29.7 78 -4.6 23.6
00:45 1011 29.85 840 24.81 -1.1 30 77 -4.7 23.5
00:50 1011 29.85 840 24.81 -0.9 30.3 75 -4.7 23.5
00:55 1011 29.85 840 24.81 -0.9 30.4 76 -4.7 23.6
01:00 1011 29.85 840 24.81 -0.9 30.4 75 -4.8 23.3
01:05 1011 29.85 840 24.81 -0.8 30.6 74 -4.8 23.3
01:10 1011 29.85 840 24.81 -0.8 30.6 74 -4.9 23.2
01:15 1011 29.85 840 24.81 -0.9 30.4 74 -4.9 23.1
01:20 1011 29.85 840 24.81 -0.9 30.4 74 -5 23
01:25 1011 29.85 840 24.81 -0.9 30.4 74 -4.9 23.1
01:30 1011 29.85 840 24.81 -0.8 30.6 74 -5 23.1
01:35 1011 29.85 840 24.81 -0.9 30.4 74 -5 23.1
01:40 1010 29.83 840 24.81 -1.1 30.1 75 -4.9 23.1
01:45 1010 29.83 840 24.81 -1.1 30 76 -4.9 23.2
01:50 1010 29.83 840 24.81 -1.2 29.8 76 -5 23.1
01:55 1010 29.83 840 24.81 -1 30.2 74 -5.1 22.8
02:00 1010 29.83 840 24.81 -0.9 30.4 74 -4.9 23.1
02:05 1010 29.83 840 24.81 -1 30.3 74 -5.1 22.8
02:10 1010 29.83 840 24.81 -0.8 30.5 73 -5.1 22.8
02:15 1010 29.83 840 24.81 -0.7 30.8 72 -5.1 22.9
02:20 1010 29.83 839 24.78 -1 30.2 75 -5 23
02:25 1010 29.83 839 24.78 -1.2 29.8 75 -5.2 22.6
02:30 1010 29.83 839 24.78 -1.1 30.1 74 -5.2 22.6
02:35 1010 29.83 839 24.78 -0.8 30.6 73 -5 23
02:40 1010 29.83 839 24.78 -1 30.1 74 -5.1 22.8
02:45 1010 29.83 839 24.78 -1.1 29.9 74 -5.2 22.7
02:50 1010 29.83 839 24.78 -1.2 29.9 74 -5.2 22.6
02:55 1010 29.83 839 24.78 -1 30.2 73 -5.3 22.5
03:00 1010 29.83 839 24.78 -0.8 30.5 72 -5.2 22.6
03:05 1010 29.83 839 24.78 -0.9 30.4 72 -5.3 22.5
03:10 1010 29.83 839 24.78 -1 30.1 73 -5.3 22.4
03:15 1010 29.83 839 24.78 -1.3 29.7 74 -5.4 22.3
03:20 1010 29.83 839 24.78 -1.3 29.7 74 -5.3 22.4
03:25 1010 29.83 839 24.78 -1.1 30 74 -5.3 22.5
03:30 1010 29.83 839 24.78 -1.3 29.7 74 -5.3 22.4
03:35 1010 29.83 839 24.78 -1.7 29 75 -5.5 22
03:40 1010 29.83 839 24.78 -1.8 28.7 76 -5.6 22
03:45 1010 29.83 839 24.78 -1.7 28.9 75 -5.5 22
03:50 1010 29.83 839 24.78 -1.5 29.2 75 -5.4 22.3
03:55 1010 29.83 839 24.78 -1.4 29.6 74 -5.4 22.3
04:00 1010 29.83 839 24.78 -1.3 29.7 74 -5.4 22.3
04:05 1010 29.83 839 24.78 -1.3 29.6 74 -5.4 22.2
04:10 1010 29.83 839 24.78 -1.4 29.5 74 -5.5 22.1
04:15 1010 29.83 839 24.78 -1.8 28.8 75 -5.6 21.9
04:20 1010 29.83 839 24.78 -2.2 28.1 76 -5.8 21.5
04:25 1010 29.83 839 24.78 -2.5 27.5 77 -5.9 21.3
04:30 1010 29.83 839 24.78 -2.6 27.2 78 -5.9 21.4
04:35 1010 29.83 839 24.78 -2.6 27.2 79 -5.8 21.5
04:40 1010 29.83 839 24.78 -2.4 27.6 79 -5.7 21.8
04:45 1010 29.83 839 24.78 -2.3 27.9 77 -5.7 21.7
04:50 1010 29.83 839 24.78 -2.4 27.7 78 -5.8 21.5
04:55 1010 29.83 839 24.78 -2.7 27.2 79 -5.9 21.3
05:00 1010 29.83 839 24.78 -2.7 27.2 77 -6.1 21.1
05:05 1010 29.83 839 24.78 -2.6 27.4 78 -6 21.3
05:10 1010 29.83 839 24.78 -1.8 28.8 75 -5.7 21.7
05:15 1010 29.83 839 24.78 -1.4 29.5 73 -5.5 22
05:20 1010 29.83 839 24.78 -1.3 29.7 73 -5.6 22
05:25 1010 29.83 839 24.78 -1.3 29.7 73 -5.5 22
05:30 1010 29.83 839 24.78 -1.3 29.6 73 -5.6 22
05:35 1010 29.83 839 24.78 -1.5 29.3 74 -5.6 21.9
05:40 1010 29.83 839 24.78 -1.8 28.7 75 -5.7 21.7
05:45 1010 29.83 839 24.78 -2.1 28.3 76 -5.7 21.7
05:50 1010 29.83 839 24.78 -2.3 27.8 77 -5.8 21.5
05:55 1010 29.83 839 24.78 -2.6 27.3 78 -6 21.2
06:00 1010 29.83 839 24.78 -2.6 27.3 78 -6 21.2
06:05 1010 29.83 839 24.78 -2.5 27.4 77 -6 21.2
06:10 1010 29.83 839 24.78 -2.6 27.4 77 -6.1 21
06:15 1010 29.83 839 24.78 -2.9 26.8 77 -6.3 20.7
06:20 1010 29.83 839 24.78 -3.2 26.2 78 -6.5 20.3
06:25 1010 29.83 839 24.78 -3.4 25.8 79 -6.6 20.2
06:30 1010 29.83 839 24.78 -3.8 25.2 81 -6.7 20
06:35 1010 29.83 839 24.78 -4 24.8 81 -6.7 19.9
06:40 1010 29.83 839 24.78 -4.2 24.5 82 -6.8 19.8
06:45 1010 29.83 839 24.78 -4.3 24.3 83 -6.8 19.8
06:50 1010 29.83 839 24.78 -4.2 24.5 83 -6.6 20.1
06:55 1010 29.83 839 24.78 -3.8 25.1 82 -6.4 20.5
07:00 1010 29.83 839 24.78 -3.4 25.9 81 -6.2 20.9
07:05 1010 29.83 839 24.78 -3.2 26.2 80 -6.2 20.9
07:10 1010 29.83 839 24.78 -3.4 25.9 81 -6.2 20.8
07:15 1010 29.83 839 24.78 -3.6 25.6 81 -6.4 20.5
07:20 1010 29.83 839 24.78 -3.6 25.5 80 -6.5 20.3
07:25 1010 29.83 839 24.78 -3.8 25.2 81 -6.6 20
07:30 1010 29.83 839 24.78 -3.7 25.4 80 -6.6 20.1
07:35 1010 29.83 839 24.78 -3.7 25.4 80 -6.6 20.2
07:40 1010 29.83 839 24.78 -3.7 25.3 81 -6.6 20.1
07:45 1010 29.83 839 24.78 -3.4 25.8 80 -6.4 20.5
07:50 1010 29.83 839 24.78 -2.7 27.2 78 -6 21.2
07:55 1010 29.83 839 24.78 -2.6 27.4 77 -6 21.2
08:00 1010 29.83 839 24.78 -2.5 27.4 77 -6 21.1
08:05 1010 29.83 839 24.78 -2.3 27.9 77 -5.8 21.5
08:10 1010 29.83 839 24.78 -1.9 28.5 75 -5.8 21.6
08:15 1010 29.83 839 24.78 -1.9 28.7 75 -5.8 21.6
08:20 1010 29.83 839 24.78 -1.8 28.7 74 -5.9 21.4
08:25 1010 29.83 839 24.78 -1.7 28.9 73 -5.9 21.4
08:30 1010 29.83 840 24.81 -1.6 29.1 73 -5.8 21.5
08:35 1010 29.83 839 24.78 -1.5 29.3 73 -5.7 21.7
08:40 1010 29.83 839 24.78 -1 30.2 71 -5.6 22
08:45 1010 29.83 840 24.81 -0.7 30.8 70 -5.5 22
08:50 1010 29.83 839 24.78 -0.3 31.4 67 -5.6 21.8
08:55 1010 29.83 839 24.78 -0.1 31.8 66 -5.6 21.8
09:00 1010 29.83 840 24.81 0 32 65 -5.8 21.6
09:05 1010 29.83 840 24.81 0 32 66 -5.7 21.8
09:10 1010 29.83 840 24.81 0.1 32.2 65 -5.8 21.6
09:15 1010 29.83 840 24.81 0 32 65 -5.8 21.5
09:20 1010 29.83 840 24.81 -0.1 31.8 66 -5.6 21.9
09:25 1010 29.83 840 24.81 0.2 32.4 65 -5.5 22
09:30 1010 29.83 840 24.81 0.6 33.1 64 -5.4 22.2
09:35 1010 29.83 840 24.81 1 33.8 62 -5.4 22.3
09:40 1010 29.83 840 24.81 1.4 34.6 60 -5.4 22.3
09:45 1010 29.83 839 24.78 1.9 35.5 59 -5.2 22.6
09:50 1010 29.83 839 24.78 1.7 35.1 60 -5.3 22.5
09:55 1010 29.83 839 24.78 1.8 35.3 59 -5.4 22.3
10:00 1010 29.83 839 24.78 2.1 35.7 59 -5.2 22.6
10:05 1010 29.83 839 24.78 2.2 36 59 -5 23
10:10 1010 29.83 839 24.78 2.8 37.1 55 -5.2 22.6
10:15 1010 29.83 839 24.78 2.4 36.3 56 -5.5 22
10:20 1010 29.83 839 24.78 1.8 35.3 58 -5.5 22
10:25 1010 29.83 839 24.78 1.9 35.3 58 -5.6 21.9
10:30 1010 29.83 839 24.78 2.5 36.5 56 -5.4 22.3
10:35 1010 29.83 839 24.78 3.1 37.5 56 -4.9 23.1
10:40 1010 29.83 839 24.78 3.2 37.8 55 -4.8 23.3
10:45 1010 29.83 839 24.78 3.3 38 54 -5 23
10:50 1010 29.83 839 24.78 3.6 38.4 52 -5.4 22.2
10:55 1010 29.83 839 24.78 3.4 38.1 53 -5.3 22.5
11:00 1010 29.83 839 24.78 3.4 38.1 54 -5.1 22.9
11:05 1010 29.83 839 24.78 3.4 38.2 49 -6.1 20.9
11:10 1010 29.83 839 24.78 2.7 36.9 55 -5.4 22.3
11:15 1010 29.83 839 24.78 3.6 38.4 50 -5.9 21.3
11:20 1010 29.83 839 24.78 3.4 38.1 51 -5.8 21.6
11:25 1010 29.83 839 24.78 3.4 38.1 52 -5.4 22.2
11:30 1010 29.83 839 24.78 3.2 37.7 53 -5.5 22.1
11:35 1010 29.83 839 24.78 3.2 37.7 53 -5.5 22
11:40 1010 29.83 839 24.78 3.6 38.6 49 -6 21.2
11:45 1010 29.83 839 24.78 2.9 37.3 53 -5.8 21.5
11:50 1010 29.83 839 24.78 2.9 37.2 51 -6.2 20.9
11:55 1010 29.83 839 24.78 2.8 37.1 53 -5.8 21.6
12:00 1010 29.83 839 24.78 3.5 38.4 52 -5.5 22.2
12:05 1010 29.83 839 24.78 3.5 38.3 50 -6 21.1
12:10 1010 29.83 839 24.78 3.5 38.3 51 -5.8 21.6
12:15 1010 29.83 839 24.78 4.9 40.8 47 -5.5 22
12:20 1010 29.83 839 24.78 4.9 40.8 46 -5.9 21.4
12:25 1010 29.83 839 24.78 3.5 38.4 52 -5.5 22.1
12:30 1010 29.83 839 24.78 4.2 39.5 46 -6.4 20.5
12:35 1010 29.83 839 24.78 3.2 37.8 51 -6.1 21.1
12:40 1010 29.83 839 24.78 4.6 40.2 48 -5.5 22.2
12:45 1010 29.83 839 24.78 5.3 41.5 43 -6.3 20.7
12:50 1010 29.83 839 24.78 4.8 40.7 43 -6.6 20.1
12:55 1010 29.83 839 24.78 4.9 40.8 44 -6.3 20.6
13:00 1010 29.83 839 24.78 4.5 40.1 46 -6 21.2
13:05 1010 29.83 839 24.78 5.1 41.2 45 -5.9 21.3
13:10 1010 29.83 839 24.78 5.1 41.1 45 -6 21.2
13:15 1010 29.83 839 24.78 4.9 40.8 45 -6.1 21
13:20 1010 29.83 839 24.78 4.4 39.9 47 -5.8 21.5
13:25 1010 29.83 839 24.78 5.1 41.1 46 -5.6 21.8
13:30 1010 29.83 839 24.78 5.6 42.1 42 -6.2 20.9
13:35 1009 29.8 839 24.78 5.1 41.1 45 -5.8 21.6
13:40 1009 29.8 839 24.78 5.7 42.3 44 -5.5 22.1
13:45 1009 29.8 839 24.78 6.3 43.3 40 -6.3 20.7
13:50 1009 29.8 839 24.78 6.4 43.5 39 -6.5 20.3
13:55 1009 29.8 839 24.78 6.7 44 38 -6.8 19.8
14:00 1009 29.8 839 24.78 7 44.5 39 -6.1 20.9
14:05 1009 29.8 839 24.78 6.1 42.9 38 -7 19.3
14:10 1009 29.8 839 24.78 5.1 41.2 40 -7.4 18.6
14:15 1009 29.8 839 24.78 5.6 42 40 -7.1 19.3
14:20 1009 29.8 839 24.78 5.8 42.5 40 -6.7 19.9
14:25 1009 29.8 839 24.78 5.5 41.9 38 -7.6 18.3
14:30 1009 29.8 839 24.78 5 41 39 -7.9 17.7
14:35 1009 29.8 838 24.75 5.4 41.8 40 -7.1 19.3
14:40 1009 29.8 838 24.75 6.4 43.5 37 -7.2 19
14:45 1009 29.8 838 24.75 7 44.6 38 -6.2 20.8
14:50 1009 29.8 838 24.75 6.6 44 36 -7.6 18.4
14:55 1009 29.8 838 24.75 6.4 43.5 39 -6.6 20.1
15:00 1009 29.8 838 24.75 7.3 45.1 36 -7 19.4
15:05 1009 29.8 838 24.75 6.3 43.4 41 -6.1 21
15:10 1009 29.8 838 24.75 6.8 44.2 39 -6.1 21
15:15 1009 29.8 838 24.75 6.7 44.1 40 -6 21.2
15:20 1009 29.8 838 24.75 7 44.7 41 -5.3 22.5
15:25 1009 29.8 838 24.75 8 46.4 40 -4.9 23.2
15:30 1009 29.8 838 24.75 8.5 47.3 40 -4.3 24.2
15:35 1009 29.8 838 24.75 8.5 47.2 36 -5.9 21.3
15:40 1009 29.8 838 24.75 8.2 46.8 38 -5.1 22.8
15:45 1009 29.8 838 24.75 8 46.4 36 -6 21.1
15:50 1009 29.8 838 24.75 7.4 45.2 40 -5.2 22.7
15:55 1009 29.8 838 24.75 7.6 45.8 40 -5.2 22.6
16:00 1009 29.8 838 24.75 8.3 46.9 37 -5.7 21.8
16:05 1009 29.8 838 24.75 8 46.3 38 -5.5 22
16:10 1009 29.8 838 24.75 7.3 45.1 39 -5.6 21.9
16:15 1009 29.8 838 24.75 7.9 46.2 39 -5.3 22.4
16:20 1009 29.8 838 24.75 8.3 47 37 -5.6 22
16:25 1009 29.8 838 24.75 8.9 48.1 34 -6.1 21.1
16:30 1009 29.8 838 24.75 8.6 47.5 36 -5.8 21.6
16:35 1009 29.8 838 24.75 8.3 47 35 -6.3 20.7
16:40 1009 29.8 838 24.75 7.8 46.1 37 -6 21.2
16:45 1009 29.8 838 24.75 7.7 45.8 38 -5.9 21.5
16:50 1009 29.8 838 24.75 8.7 47.6 36 -5.4 22.3
16:55 1009 29.8 838 24.75 8.8 47.8 36 -5.4 22.3
17:00 1009 29.8 838 24.75 9.2 48.5 34 -5.7 21.7
17:05 1009 29.8 838 24.75 8.5 47.3 36 -5.6 21.9
17:10 1009 29.8 838 24.75 9 48.2 35 -5.7 21.7
17:15 1009 29.8 838 24.75 7.8 46 38 -5.6 22
17:20 1009 29.8 838 24.75 7.4 45.3 39 -5.6 22
17:25 1009 29.8 838 24.75 8.3 46.9 36 -5.8 21.6
17:30 1009 29.8 838 24.75 8.5 47.4 36 -5.6 21.9
17:35 1009 29.8 838 24.75 8.8 47.8 36 -5.3 22.5
17:40 1009 29.8 838 24.75 8.4 47.2 37 -5.6 22
17:45 1009 29.8 838 24.75 8.1 46.6 36 -6 21.1
17:50 1009 29.8 838 24.75 8 46.4 37 -5.8 21.5
17:55 1009 29.8 838 24.75 8.7 47.7 35 -6.1 21.1
18:00 1009 29.8 838 24.75 8.6 47.5 35 -5.9 21.3
18:05 1009 29.8 838 24.75 8.6 47.4 35 -6.1 21
18:10 1009 29.8 838 24.75 8.3 46.9 36 -5.8 21.6
18:15 1009 29.8 838 24.75 8 46.3 37 -5.7 21.7
18:20 1009 29.8 838 24.75 7.7 45.9 38 -5.6 22
18:25 1009 29.8 838 24.75 7.6 45.8 38 -5.9 21.4
18:30 1009 29.8 838 24.75 7.4 45.4 37 -6.2 20.9
18:35 1009 29.8 838 24.75 7.3 45.2 37 -6.2 20.8
18:40 1009 29.8 839 24.78 7.3 45.1 38 -6 21.1
18:45 1009 29.8 839 24.78 7.3 45.2 38 -6.1 21.1
18:50 1009 29.8 839 24.78 7.2 44.9 38 -6.4 20.5
18:55 1010 29.83 839 24.78 6.8 44.2 48 -3.5 25.7
19:00 1010 29.83 839 24.78 5.6 42.1 54 -3 26.7
19:05 1010 29.83 839 24.78 5 41 56 -3 26.6
19:10 1010 29.83 839 24.78 4.9 40.8 57 -2.9 26.8
19:15 1010 29.83 839 24.78 4.4 40 60 -2.7 27.1
19:20 1010 29.83 839 24.78 4 39.1 62 -2.6 27.3
19:25 1010 29.83 839 24.78 3.7 38.7 64 -2.4 27.6
19:30 1010 29.83 839 24.78 3.5 38.3 67 -2.1 28.2
19:35 1010 29.83 839 24.78 3.3 37.9 68 -2 28.4
19:40 1010 29.83 839 24.78 3.2 37.7 70 -1.8 28.8
19:45 1010 29.83 839 24.78 3.1 37.5 71 -1.6 29.1
19:50 1010 29.83 839 24.78 2.9 37.3 71 -1.7 28.9
19:55 1010 29.83 839 24.78 2.9 37.2 70 -2 28.4
20:00 1010 29.83 839 24.78 2.7 36.9 71 -2.1 28.2
20:05 1010 29.83 839 24.78 2.6 36.7 71 -2.1 28.2
20:10 1010 29.83 839 24.78 2.5 36.5 71 -2.2 28.1
20:15 1010 29.83 839 24.78 2.4 36.3 72 -2.2 28
20:20 1010 29.83 839 24.78 2.4 36.2 71 -2.3 27.9
20:25 1010 29.83 839 24.78 2.3 36.2 71 -2.4 27.7
20:30 1010 29.83 839 24.78 2.3 36.2 71 -2.4 27.6
20:35 1010 29.83 839 24.78 2.2 36 72 -2.3 27.9
20:40 1010 29.83 839 24.78 2.1 35.7 73 -2.2 28
20:45 1010 29.83 839 24.78 1.9 35.4 73 -2.4 27.7
20:50 1010 29.83 840 24.81 2 35.6 73 -2.4 27.6
20:55 1010 29.83 840 24.81 1.9 35.5 73 -2.5 27.6
21:00 1010 29.83 840 24.81 1.8 35.3 73 -2.5 27.5
21:05 1010 29.83 840 24.81 1.7 35.1 74 -2.5 27.5
21:10 1011 29.85 840 24.81 1.6 34.9 74 -2.5 27.5
21:15 1011 29.85 840 24.81 1.5 34.8 75 -2.4 27.8
21:20 1011 29.85 840 24.81 1.5 34.6 76 -2.3 27.9
21:25 1011 29.85 840 24.81 1.4 34.6 78 -2.1 28.3
21:30 1011 29.85 840 24.81 1.4 34.6 79 -1.8 28.8
21:35 1011 29.85 840 24.81 1.5 34.7 80 -1.6 29.1
21:40 1011 29.85 840 24.81 1.5 34.7 81 -1.4 29.5
21:45 1011 29.85 840 24.81 1.5 34.7 82 -1.2 29.8
21:50 1011 29.85 840 24.81 1.4 34.6 82 -1.2 29.8
21:55 1011 29.85 840 24.81 1.6 34.8 82 -1.1 30
22:00 1011 29.85 840 24.81 1.6 34.9 82 -1.1 30
22:05 1011 29.85 840 24.81 1.7 35 79 -1.6 29.1
22:10 1011 29.85 840 24.81 1.7 35 77 -1.8 28.7
22:15 1011 29.85 841 24.83 1.6 35 77 -1.9 28.5
22:20 1011 29.85 841 24.83 1.8 35.2 76 -2 28.3
22:25 1011 29.85 841 24.83 1.7 35.1 76 -2.1 28.2
22:30 1011 29.85 841 24.83 1.8 35.2 76 -2.1 28.3
22:35 1012 29.88 841 24.83 1.8 35.3 76 -2 28.4
22:40 1011 29.85 841 24.83 1.7 35.1 77 -1.9 28.6
22:45 1011 29.85 841 24.83 1.7 35.1 78 -1.6 29
22:50 1011 29.85 841 24.83 1.8 35.2 79 -1.6 29.2
22:55 1012 29.88 841 24.83 1.7 35.1 78 -1.6 29.1
23:00 1012 29.88 841 24.83 1.6 34.9 77 -2 28.4
23:05 1012 29.88 841 24.83 1.7 35.1 75 -2.3 27.9
23:10 1012 29.88 841 24.83 1.9 35.4 73 -2.4 27.7
23:15 1012 29.88 841 24.83 2 35.6 72 -2.5 27.6
23:20 1012 29.88 841 24.83 1.9 35.5 72 -2.6 27.2
23:25 1012 29.88 841 24.83 2.1 35.8 69 -3.1 26.5
23:30 1012 29.88 841 24.83 2.4 36.3 68 -2.9 26.9
23:35 1012 29.88 841 24.83 2.1 35.8 71 -2.7 27.1
23:40 1012 29.88 841 24.83 1.9 35.4 72 -2.5 27.4
23:45 1012 29.88 841 24.83 1.6 34.8 76 -2.3 27.9
23:50 1012 29.88 841 24.83 1.5 34.6 76 -2.4 27.7
23:55 1012 29.88 841 24.83 1.5 34.7 75 -2.4 27.7
24:00 1012 29.88 841 24.83 1.4 34.4 75 -2.6 27.3